createdAt,value
2018-04-22T00:00:58.118Z,1015.10
2018-04-22T00:01:58.110Z,1015.14
2018-04-22T00:02:58.112Z,1015.12
2018-04-22T00:03:58.110Z,1015.09
2018-04-22T00:04:58.177Z,1015.12
2018-04-22T00:05:58.106Z,1015.11
2018-04-22T00:06:58.101Z,1015.12
2018-04-22T00:07:58.107Z,1015.09
2018-04-22T00:08:58.103Z,1015.08
2018-04-22T00:09:58.093Z,1015.09
2018-04-22T00:10:58.094Z,1015.09
2018-04-22T00:11:58.091Z,1015.13
2018-04-22T00:12:58.080Z,1015.06
2018-04-22T00:13:58.083Z,1015.08
2018-04-22T00:14:58.081Z,1015.08
2018-04-22T00:15:58.079Z,1015.06
2018-04-22T00:16:58.076Z,1015.07
2018-04-22T00:17:58.074Z,1015.04
2018-04-22T00:18:58.073Z,1015.05
2018-04-22T00:19:58.070Z,1015.03
2018-04-22T00:20:58.066Z,1015.03
2018-04-22T00:21:58.063Z,1015.01
2018-04-22T00:22:58.063Z,1014.99
2018-04-22T00:23:58.058Z,1014.99
2018-04-22T00:24:58.054Z,1015.01
2018-04-22T00:25:58.054Z,1015.03
2018-04-22T00:26:58.047Z,1014.98
2018-04-22T00:27:58.048Z,1014.99
2018-04-22T00:28:58.045Z,1014.95
2018-04-22T00:29:58.041Z,1014.96
2018-04-22T00:30:58.047Z,1014.94
2018-04-22T00:31:58.040Z,1014.94
2018-04-22T00:32:58.035Z,1014.93
2018-04-22T00:33:58.034Z,1014.97
2018-04-22T00:34:58.029Z,1014.94
2018-04-22T00:35:58.026Z,1014.92
2018-04-22T00:36:58.028Z,1014.94
2018-04-22T00:37:58.024Z,1014.93
2018-04-22T00:38:58.019Z,1014.89
2018-04-22T00:39:58.024Z,1014.87
2018-04-22T00:40:58.011Z,1014.93
2018-04-22T00:41:58.020Z,1014.91
2018-04-22T00:42:58.007Z,1014.89
2018-04-22T00:43:58.006Z,1014.93
2018-04-22T00:44:58.001Z,1014.95
2018-04-22T00:45:57.997Z,1014.93
2018-04-22T00:46:57.996Z,1014.93
2018-04-22T00:47:57.993Z,1014.93
2018-04-22T00:48:57.992Z,1014.91
2018-04-22T00:49:57.991Z,1014.90
2018-04-22T00:50:57.987Z,1014.90
2018-04-22T00:51:57.983Z,1014.90
2018-04-22T00:52:57.989Z,1014.86
2018-04-22T00:53:57.980Z,1014.88
2018-04-22T00:54:57.976Z,1014.84
2018-04-22T00:55:57.974Z,1014.81
2018-04-22T00:56:57.967Z,1014.87
2018-04-22T00:57:57.968Z,1014.88
2018-04-22T00:58:57.966Z,1014.87
2018-04-22T00:59:57.960Z,1014.86
2018-04-22T01:00:57.965Z,1014.84
2018-04-22T01:01:57.955Z,1014.87
2018-04-22T01:02:57.954Z,1014.86
2018-04-22T01:03:57.960Z,1014.87
2018-04-22T01:04:57.947Z,1014.85
2018-04-22T01:05:57.951Z,1014.89
2018-04-22T01:06:57.943Z,1014.89
2018-04-22T01:07:57.941Z,1014.88
2018-04-22T01:08:57.935Z,1014.94
2018-04-22T01:09:57.948Z,1014.90
2018-04-22T01:10:57.931Z,1014.87
2018-04-22T01:11:57.931Z,1014.89
2018-04-22T01:12:57.923Z,1014.90
2018-04-22T01:13:57.924Z,1014.90
2018-04-22T01:14:57.919Z,1014.88
2018-04-22T01:15:57.923Z,1014.88
2018-04-22T01:16:57.916Z,1014.86
2018-04-22T01:17:57.911Z,1014.86
2018-04-22T01:18:57.906Z,1014.84
2018-04-22T01:19:57.905Z,1014.83
2018-04-22T01:20:57.908Z,1014.79
2018-04-22T01:21:57.902Z,1014.79
2018-04-22T01:22:57.895Z,1014.81
2018-04-22T01:23:57.893Z,1014.79
2018-04-22T01:24:57.899Z,1014.79
2018-04-22T01:25:57.889Z,1014.82
2018-04-22T01:26:57.888Z,1014.79
2018-04-22T01:27:57.888Z,1014.79
2018-04-22T01:28:57.875Z,1014.78
2018-04-22T01:29:57.880Z,1014.79
2018-04-22T01:30:57.870Z,1014.79
2018-04-22T01:31:57.869Z,1014.76
2018-04-22T01:32:57.872Z,1014.78
2018-04-22T01:33:57.866Z,1014.77
2018-04-22T01:34:57.866Z,1014.78
2018-04-22T01:35:57.861Z,1014.78
2018-04-22T01:36:57.856Z,1014.79
2018-04-22T01:37:57.854Z,1014.76
2018-04-22T01:38:57.859Z,1014.74
2018-04-22T01:39:57.848Z,1014.75
2018-04-22T01:40:57.846Z,1014.74
2018-04-22T01:41:57.839Z,1014.75
2018-04-22T01:42:57.842Z,1014.80
2018-04-22T01:43:57.835Z,1014.75
2018-04-22T01:44:57.833Z,1014.74
2018-04-22T01:45:57.829Z,1014.73
2018-04-22T01:46:57.831Z,1014.78
2018-04-22T01:47:57.822Z,1014.80
2018-04-22T01:48:57.817Z,1014.78
2018-04-22T01:49:57.813Z,1014.78
2018-04-22T01:50:57.814Z,1014.79
2018-04-22T01:51:57.808Z,1014.80
2018-04-22T01:52:57.805Z,1014.76
2018-04-22T01:53:57.799Z,1014.79
2018-04-22T01:54:57.797Z,1014.78
2018-04-22T01:55:57.803Z,1014.81
2018-04-22T01:56:57.792Z,1014.81
2018-04-22T01:57:57.794Z,1014.81
2018-04-22T01:58:57.784Z,1014.84
2018-04-22T01:59:57.780Z,1014.82
2018-04-22T02:00:57.783Z,1014.79
2018-04-22T02:01:57.774Z,1014.80
2018-04-22T02:02:57.769Z,1014.79
2018-04-22T02:03:57.768Z,1014.77
2018-04-22T02:04:57.762Z,1014.75
2018-04-22T02:05:57.766Z,1014.75
2018-04-22T02:06:57.755Z,1014.74
2018-04-22T02:07:57.754Z,1014.71
2018-04-22T02:08:57.753Z,1014.70
2018-04-22T02:09:57.741Z,1014.69
2018-04-22T02:10:57.744Z,1014.68
2018-04-22T02:11:57.812Z,1014.68
2018-04-22T02:12:57.737Z,1014.65
2018-04-22T02:13:57.733Z,1014.64
2018-04-22T02:14:57.729Z,1014.67
2018-04-22T02:15:57.727Z,1014.66
2018-04-22T02:16:57.727Z,1014.68
2018-04-22T02:17:57.718Z,1014.62
2018-04-22T02:18:57.718Z,1014.64
2018-04-22T02:19:57.709Z,1014.63
2018-04-22T02:20:57.707Z,1014.67
2018-04-22T02:21:57.704Z,1014.63
2018-04-22T02:22:57.702Z,1014.61
2018-04-22T02:23:57.698Z,1014.63
2018-04-22T02:24:57.694Z,1014.60
2018-04-22T02:25:57.693Z,1014.58
2018-04-22T02:26:57.689Z,1014.58
2018-04-22T02:27:57.682Z,1014.58
2018-04-22T02:28:57.683Z,1014.54
2018-04-22T02:29:57.676Z,1014.54
2018-04-22T02:30:57.673Z,1014.53
2018-04-22T02:31:57.671Z,1014.54
2018-04-22T02:32:57.667Z,1014.52
2018-04-22T02:33:57.663Z,1014.48
2018-04-22T02:34:57.659Z,1014.52
2018-04-22T02:35:57.658Z,1014.49
2018-04-22T02:36:57.649Z,1014.48
2018-04-22T02:37:57.648Z,1014.45
2018-04-22T02:38:57.647Z,1014.44
2018-04-22T02:39:57.641Z,1014.45
2018-04-22T02:40:57.637Z,1014.44
2018-04-22T02:41:57.637Z,1014.40
2018-04-22T02:42:57.633Z,1014.40
2018-04-22T02:43:57.627Z,1014.42
2018-04-22T02:44:57.622Z,1014.40
2018-04-22T02:45:57.628Z,1014.39
2018-04-22T02:46:57.618Z,1014.41
2018-04-22T02:47:57.614Z,1014.39
2018-04-22T02:48:57.609Z,1014.41
2018-04-22T02:49:57.600Z,1014.39
2018-04-22T02:50:57.601Z,1014.41
2018-04-22T02:51:57.597Z,1014.36
2018-04-22T02:52:57.592Z,1014.36
2018-04-22T02:53:57.596Z,1014.37
2018-04-22T02:54:57.583Z,1014.36
2018-04-22T02:55:57.589Z,1014.30
2018-04-22T02:56:57.576Z,1014.33
2018-04-22T02:57:57.572Z,1014.36
2018-04-22T02:58:57.578Z,1014.28
2018-04-22T02:59:57.563Z,1014.31
2018-04-22T03:00:57.565Z,1014.29
2018-04-22T03:01:57.558Z,1014.26
2018-04-22T03:02:57.552Z,1014.25
2018-04-22T03:03:57.552Z,1014.22
2018-04-22T03:04:57.544Z,1014.22
2018-04-22T03:05:57.551Z,1014.20
2018-04-22T03:06:57.541Z,1014.18
2018-04-22T03:07:57.536Z,1014.19
2018-04-22T03:08:57.530Z,1014.18
2018-04-22T03:09:57.523Z,1014.19
2018-04-22T03:10:57.523Z,1014.20
2018-04-22T03:11:57.520Z,1014.21
2018-04-22T03:12:57.516Z,1014.20
2018-04-22T03:13:57.512Z,1014.21
2018-04-22T03:14:57.509Z,1014.23
2018-04-22T03:15:57.506Z,1014.26
2018-04-22T03:16:57.501Z,1014.24
2018-04-22T03:17:57.496Z,1014.23
2018-04-22T03:18:57.493Z,1014.22
2018-04-22T03:19:57.488Z,1014.23
2018-04-22T03:20:57.484Z,1014.19
2018-04-22T03:21:57.479Z,1014.19
2018-04-22T03:22:57.479Z,1014.15
2018-04-22T03:23:57.477Z,1014.17
2018-04-22T03:24:57.470Z,1014.13
2018-04-22T03:25:57.470Z,1014.13
2018-04-22T03:26:57.462Z,1014.14
2018-04-22T03:27:57.464Z,1014.16
2018-04-22T03:28:57.450Z,1014.16
2018-04-22T03:29:57.450Z,1014.14
2018-04-22T03:30:57.451Z,1014.15
2018-04-22T03:31:57.443Z,1014.14
2018-04-22T03:32:57.440Z,1014.13
2018-04-22T03:33:57.436Z,1014.14
2018-04-22T03:34:57.436Z,1014.17
2018-04-22T03:35:57.426Z,1014.16
2018-04-22T03:36:57.423Z,1014.16
2018-04-22T03:37:57.419Z,1014.11
2018-04-22T03:38:57.412Z,1014.13
2018-04-22T03:39:57.413Z,1014.12
2018-04-22T03:40:57.408Z,1014.13
2018-04-22T03:41:57.403Z,1014.08
2018-04-22T03:42:57.402Z,1014.08
2018-04-22T03:43:57.396Z,1014.08
2018-04-22T03:44:57.392Z,1014.10
2018-04-22T03:45:57.387Z,1014.08
2018-04-22T03:46:57.386Z,1014.07
2018-04-22T03:47:57.380Z,1014.05
2018-04-22T03:48:57.377Z,1014.03
2018-04-22T03:49:57.372Z,1014.05
2018-04-22T03:50:57.367Z,1014.05
2018-04-22T03:51:57.369Z,1014.04
2018-04-22T03:52:57.357Z,1014.06
2018-04-22T03:53:57.359Z,1014.06
2018-04-22T03:54:57.355Z,1014.05
2018-04-22T03:55:57.388Z,1014.02
2018-04-22T03:56:57.345Z,1014.04
2018-04-22T03:57:57.336Z,1014.01
2018-04-22T03:58:57.340Z,1014.00
2018-04-22T03:59:57.332Z,1014.00
2018-04-22T04:00:57.328Z,1014.00
2018-04-22T04:01:57.325Z,1014.03
2018-04-22T04:02:57.319Z,1014.02
2018-04-22T04:03:57.325Z,1014.03
2018-04-22T04:04:57.313Z,1014.03
2018-04-22T04:05:57.309Z,1014.02
2018-04-22T04:06:57.304Z,1014.02
2018-04-22T04:07:57.299Z,1014.02
2018-04-22T04:08:57.297Z,1014.06
2018-04-22T04:09:57.290Z,1014.07
2018-04-22T04:10:57.289Z,1014.07
2018-04-22T04:11:57.284Z,1014.07
2018-04-22T04:12:57.284Z,1014.12
2018-04-22T04:13:57.277Z,1014.11
2018-04-22T04:14:57.283Z,1014.09
2018-04-22T04:15:57.270Z,1014.12
2018-04-22T04:16:57.261Z,1014.11
2018-04-22T04:17:57.264Z,1014.06
2018-04-22T04:18:57.258Z,1014.05
2018-04-22T04:19:57.252Z,1014.03
2018-04-22T04:20:57.247Z,1014.04
2018-04-22T04:21:57.243Z,1014.08
2018-04-22T04:22:57.247Z,1014.04
2018-04-22T04:23:57.240Z,1014.05
2018-04-22T04:24:57.235Z,1014.04
2018-04-22T04:25:57.227Z,1014.05
2018-04-22T04:26:57.221Z,1014.11
2018-04-22T04:27:57.220Z,1014.09
2018-04-22T04:28:57.216Z,1014.09
2018-04-22T04:29:57.215Z,1014.10
2018-04-22T04:30:57.209Z,1014.08
2018-04-22T04:31:57.205Z,1014.09
2018-04-22T04:32:57.201Z,1014.08
2018-04-22T04:33:57.197Z,1014.06
2018-04-22T04:34:57.194Z,1014.05
2018-04-22T04:35:57.186Z,1014.05
2018-04-22T04:36:57.183Z,1014.05
2018-04-22T04:37:57.180Z,1014.02
2018-04-22T04:38:57.181Z,1014.04
2018-04-22T04:39:57.188Z,1014.05
2018-04-22T04:40:57.169Z,1014.05
2018-04-22T04:41:57.168Z,1014.04
2018-04-22T04:42:57.162Z,1014.07
2018-04-22T04:43:57.161Z,1014.08
2018-04-22T04:44:57.154Z,1014.03
2018-04-22T04:45:57.147Z,1014.02
2018-04-22T04:46:57.147Z,1014.05
2018-04-22T04:47:57.143Z,1014.02
2018-04-22T04:48:57.140Z,1014.01
2018-04-22T04:49:57.134Z,1014.00
2018-04-22T04:50:57.128Z,1013.97
2018-04-22T04:51:57.136Z,1014.00
2018-04-22T04:52:57.123Z,1013.97
2018-04-22T04:53:57.122Z,1013.99
2018-04-22T04:54:57.122Z,1013.99
2018-04-22T04:55:57.111Z,1014.02
2018-04-22T04:56:57.113Z,1014.04
2018-04-22T04:57:57.108Z,1014.05
2018-04-22T04:58:57.105Z,1014.03
2018-04-22T04:59:57.101Z,1014.05
2018-04-22T05:00:57.098Z,1014.05
2018-04-22T05:01:57.100Z,1014.01
2018-04-22T05:02:57.091Z,1014.09
2018-04-22T05:03:57.088Z,1014.10
2018-04-22T05:04:57.086Z,1014.06
2018-04-22T05:05:57.078Z,1014.06
2018-04-22T05:06:57.078Z,1014.07
2018-04-22T05:07:57.076Z,1014.03
2018-04-22T05:08:57.076Z,1014.02
2018-04-22T05:09:57.070Z,1014.00
2018-04-22T05:10:57.064Z,1013.96
2018-04-22T05:11:57.065Z,1013.96
2018-04-22T05:12:57.069Z,1013.96
2018-04-22T05:13:57.060Z,1013.94
2018-04-22T05:14:57.063Z,1013.98
2018-04-22T05:15:57.057Z,1013.92
2018-04-22T05:16:57.049Z,1013.95
2018-04-22T05:17:57.055Z,1013.96
2018-04-22T05:18:57.056Z,1013.95
2018-04-22T05:19:57.048Z,1013.95
2018-04-22T05:20:57.044Z,1013.96
2018-04-22T05:21:57.044Z,1013.97
2018-04-22T05:22:57.045Z,1013.97
2018-04-22T05:23:57.046Z,1013.99
2018-04-22T05:24:57.052Z,1013.95
2018-04-22T05:25:57.039Z,1013.89
2018-04-22T05:26:57.041Z,1013.89
2018-04-22T05:27:57.037Z,1013.91
2018-04-22T05:28:57.035Z,1013.95
2018-04-22T05:29:57.034Z,1013.95
2018-04-22T05:30:57.035Z,1013.89
2018-04-22T05:31:57.034Z,1013.92
2018-04-22T05:32:57.031Z,1013.93
2018-04-22T05:33:57.032Z,1013.92
2018-04-22T05:34:57.032Z,1013.90
2018-04-22T05:35:57.033Z,1013.89
2018-04-22T05:36:57.027Z,1013.88
2018-04-22T05:37:57.033Z,1013.83
2018-04-22T05:38:57.030Z,1013.84
2018-04-22T05:39:57.031Z,1013.85
2018-04-22T05:40:57.027Z,1013.83
2018-04-22T05:41:57.032Z,1013.82
2018-04-22T05:42:57.028Z,1013.82
2018-04-22T05:43:57.026Z,1013.84
2018-04-22T05:44:57.027Z,1013.81
2018-04-22T05:45:57.029Z,1013.83
2018-04-22T05:46:57.022Z,1013.86
2018-04-22T05:47:57.027Z,1013.87
2018-04-22T05:48:57.029Z,1013.87
2018-04-22T05:49:57.032Z,1013.81
2018-04-22T05:50:57.030Z,1013.84
2018-04-22T05:51:57.032Z,1013.83
2018-04-22T05:52:57.031Z,1013.83
2018-04-22T05:53:57.037Z,1013.86
2018-04-22T05:54:57.034Z,1013.86
2018-04-22T05:55:57.033Z,1013.90
2018-04-22T05:56:57.036Z,1013.87
2018-04-22T05:57:57.037Z,1013.87
2018-04-22T05:58:57.039Z,1013.85
2018-04-22T05:59:57.038Z,1013.85
2018-04-22T06:00:57.035Z,1013.86
2018-04-22T06:01:57.043Z,1013.84
2018-04-22T06:02:57.043Z,1013.86
2018-04-22T06:03:57.046Z,1013.84
2018-04-22T06:04:57.045Z,1013.84
2018-04-22T06:05:57.048Z,1013.80
2018-04-22T06:06:57.049Z,1013.78
2018-04-22T06:07:57.052Z,1013.79
2018-04-22T06:08:57.056Z,1013.79
2018-04-22T06:09:57.054Z,1013.80
2018-04-22T06:10:57.059Z,1013.78
2018-04-22T06:11:57.064Z,1013.75
2018-04-22T06:12:57.062Z,1013.72
2018-04-22T06:13:57.070Z,1013.74
2018-04-22T06:14:57.076Z,1013.74
2018-04-22T06:15:57.071Z,1013.72
2018-04-22T06:16:57.074Z,1013.72
2018-04-22T06:17:57.076Z,1013.71
2018-04-22T06:18:57.079Z,1013.69
2018-04-22T06:19:57.084Z,1013.68
2018-04-22T06:20:57.086Z,1013.67
2018-04-22T06:21:57.089Z,1013.63
2018-04-22T06:22:57.104Z,1013.62
2018-04-22T06:23:57.096Z,1013.61
2018-04-22T06:24:57.095Z,1013.60
2018-04-22T06:25:57.100Z,1013.63
2018-04-22T06:26:57.105Z,1013.62
2018-04-22T06:27:57.110Z,1013.63
2018-04-22T06:28:57.115Z,1013.60
2018-04-22T06:29:57.122Z,1013.58
2018-04-22T06:30:57.125Z,1013.57
2018-04-22T06:31:57.133Z,1013.58
2018-04-22T06:32:57.130Z,1013.56
2018-04-22T06:33:57.133Z,1013.54
2018-04-22T06:34:57.182Z,1013.55
2018-04-22T06:35:57.142Z,1013.54
2018-04-22T06:36:57.148Z,1013.54
2018-04-22T06:37:57.153Z,1013.53
2018-04-22T06:38:57.156Z,1013.53
2018-04-22T06:39:57.163Z,1013.55
2018-04-22T06:40:57.170Z,1013.56
2018-04-22T06:41:57.169Z,1013.53
2018-04-22T06:42:57.184Z,1013.54
2018-04-22T06:43:57.183Z,1013.58
2018-04-22T06:44:57.182Z,1013.55
2018-04-22T06:45:57.188Z,1013.58
2018-04-22T06:46:57.194Z,1013.53
2018-04-22T06:47:57.196Z,1013.55
2018-04-22T06:48:57.199Z,1013.56
2018-04-22T06:49:57.212Z,1013.56
2018-04-22T06:50:57.214Z,1013.53
2018-04-22T06:51:57.221Z,1013.52
2018-04-22T06:52:57.215Z,1013.54
2018-04-22T06:53:57.229Z,1013.52
2018-04-22T06:54:57.229Z,1013.51
2018-04-22T06:55:57.239Z,1013.53
2018-04-22T06:56:57.239Z,1013.52
2018-04-22T06:57:57.244Z,1013.49
2018-04-22T06:58:57.250Z,1013.50
2018-04-22T06:59:57.254Z,1013.48
2018-04-22T07:00:57.258Z,1013.51
2018-04-22T07:01:57.264Z,1013.48
2018-04-22T07:02:57.270Z,1013.45
2018-04-22T07:03:57.278Z,1013.45
2018-04-22T07:04:57.281Z,1013.42
2018-04-22T07:05:57.288Z,1013.46
2018-04-22T07:06:57.297Z,1013.44
2018-04-22T07:07:57.298Z,1013.43
2018-04-22T07:08:57.309Z,1013.40
2018-04-22T07:09:57.309Z,1013.43
2018-04-22T07:10:57.313Z,1013.42
2018-04-22T07:11:57.324Z,1013.43
2018-04-22T07:12:57.324Z,1013.38
2018-04-22T07:13:57.333Z,1013.37
2018-04-22T07:14:57.337Z,1013.40
2018-04-22T07:15:57.343Z,1013.40
2018-04-22T07:16:57.351Z,1013.36
2018-04-22T07:17:57.356Z,1013.37
2018-04-22T07:18:57.358Z,1013.37
2018-04-22T07:19:57.366Z,1013.34
2018-04-22T07:20:57.368Z,1013.35
2018-04-22T07:21:57.374Z,1013.32
2018-04-22T07:22:57.381Z,1013.32
2018-04-22T07:23:57.441Z,1013.29
2018-04-22T07:24:57.399Z,1013.31
2018-04-22T07:25:57.402Z,1013.29
2018-04-22T07:26:57.407Z,1013.28
2018-04-22T07:27:57.416Z,1013.31
2018-04-22T07:28:57.421Z,1013.25
2018-04-22T07:29:57.427Z,1013.28
2018-04-22T07:30:57.434Z,1013.30
2018-04-22T07:31:57.443Z,1013.28
2018-04-22T07:32:57.449Z,1013.28
2018-04-22T07:33:57.457Z,1013.30
2018-04-22T07:34:57.464Z,1013.31
2018-04-22T07:35:57.470Z,1013.33
2018-04-22T07:36:57.482Z,1013.31
2018-04-22T07:37:57.485Z,1013.34
2018-04-22T07:38:57.491Z,1013.26
2018-04-22T07:39:57.503Z,1013.29
2018-04-22T07:40:57.504Z,1013.31
2018-04-22T07:41:57.518Z,1013.31
2018-04-22T07:42:57.528Z,1013.31
2018-04-22T07:43:57.531Z,1013.31
2018-04-22T07:44:57.537Z,1013.35
2018-04-22T07:45:57.545Z,1013.35
2018-04-22T07:46:57.553Z,1013.37
2018-04-22T07:47:57.565Z,1013.36
2018-04-22T07:48:57.573Z,1013.33
2018-04-22T07:49:57.578Z,1013.35
2018-04-22T07:50:57.585Z,1013.38
2018-04-22T07:51:57.594Z,1013.40
2018-04-22T07:52:57.600Z,1013.39
2018-04-22T07:53:57.610Z,1013.37
2018-04-22T07:54:57.618Z,1013.39
2018-04-22T07:55:57.628Z,1013.38
2018-04-22T07:56:57.640Z,1013.37
2018-04-22T07:57:57.643Z,1013.48
2018-04-22T07:58:57.649Z,1013.43
2018-04-22T07:59:57.656Z,1013.44
2018-04-22T08:00:57.663Z,1013.46
2018-04-22T08:01:57.675Z,1013.42
2018-04-22T08:02:57.683Z,1013.39
2018-04-22T08:03:57.688Z,1013.36
2018-04-22T08:04:57.695Z,1013.39
2018-04-22T08:05:57.707Z,1013.37
2018-04-22T08:06:57.711Z,1013.38
2018-04-22T08:07:57.716Z,1013.41
2018-04-22T08:08:57.722Z,1013.43
2018-04-22T08:09:57.731Z,1013.46
2018-04-22T08:10:57.741Z,1013.44
2018-04-22T08:11:57.744Z,1013.42
2018-04-22T08:12:57.749Z,1013.44
2018-04-22T08:13:57.763Z,1013.45
2018-04-22T08:14:57.762Z,1013.44
2018-04-22T08:15:57.774Z,1013.36
2018-04-22T08:16:57.775Z,1013.30
2018-04-22T08:17:57.780Z,1013.33
2018-04-22T08:18:57.787Z,1013.26
2018-04-22T08:19:57.798Z,1013.26
2018-04-22T08:20:57.801Z,1013.26
2018-04-22T08:21:57.806Z,1013.36
2018-04-22T08:22:57.812Z,1013.41
2018-04-22T08:23:57.818Z,1013.41
2018-04-22T08:24:57.823Z,1013.40
2018-04-22T08:25:57.828Z,1013.40
2018-04-22T08:26:57.837Z,1013.30
2018-04-22T08:27:57.841Z,1013.25
2018-04-22T08:28:57.846Z,1013.24
2018-04-22T08:29:57.853Z,1013.20
2018-04-22T08:30:57.860Z,1013.13
2018-04-22T08:31:57.869Z,1013.17
2018-04-22T08:32:57.872Z,1013.15
2018-04-22T08:33:57.914Z,1013.11
2018-04-22T08:34:57.882Z,1013.11
2018-04-22T08:35:57.889Z,1013.14
2018-04-22T08:36:57.893Z,1013.13
2018-04-22T08:37:57.901Z,1013.14
2018-04-22T08:38:57.907Z,1013.15
2018-04-22T08:39:57.909Z,1013.12
2018-04-22T08:40:57.914Z,1013.10
2018-04-22T08:41:57.918Z,1013.09
2018-04-22T08:42:57.923Z,1013.06
2018-04-22T08:43:57.935Z,1013.06
2018-04-22T08:44:57.932Z,1013.05
2018-04-22T08:45:57.938Z,1013.04
2018-04-22T08:46:57.944Z,1013.05
2018-04-22T08:47:57.948Z,1013.03
2018-04-22T08:48:57.953Z,1013.07
2018-04-22T08:49:57.959Z,1013.02
2018-04-22T08:50:57.962Z,1013.03
2018-04-22T08:51:57.965Z,1013.02
2018-04-22T08:52:57.967Z,1013.04
2018-04-22T08:53:57.977Z,1013.02
2018-04-22T08:54:57.979Z,1013.01
2018-04-22T08:55:57.982Z,1012.98
2018-04-22T08:56:57.995Z,1012.97
2018-04-22T08:57:57.990Z,1012.96
2018-04-22T08:58:58.002Z,1012.97
2018-04-22T08:59:58.001Z,1012.94
2018-04-22T09:00:58.011Z,1012.93
2018-04-22T09:01:58.011Z,1012.93
2018-04-22T09:02:58.009Z,1012.89
2018-04-22T09:03:58.014Z,1012.90
2018-04-22T09:04:58.019Z,1012.91
2018-04-22T09:05:58.024Z,1012.91
2018-04-22T09:06:58.025Z,1012.90
2018-04-22T09:07:58.031Z,1012.90
2018-04-22T09:08:58.041Z,1012.90
2018-04-22T09:09:58.035Z,1012.85
2018-04-22T09:10:58.040Z,1012.83
2018-04-22T09:11:58.043Z,1012.81
2018-04-22T09:12:58.045Z,1012.78
2018-04-22T09:13:58.048Z,1012.74
2018-04-22T09:14:58.052Z,1012.76
2018-04-22T09:15:58.057Z,1012.68
2018-04-22T09:16:58.058Z,1012.68
2018-04-22T09:17:58.072Z,1012.64
2018-04-22T09:18:58.071Z,1012.61
2018-04-22T09:19:58.066Z,1012.57
2018-04-22T09:20:58.081Z,1012.56
2018-04-22T09:21:58.096Z,1012.58
2018-04-22T09:22:58.078Z,1012.57
2018-04-22T09:23:58.085Z,1012.57
2018-04-22T09:24:58.087Z,1012.58
2018-04-22T09:25:58.089Z,1012.63
2018-04-22T09:26:58.098Z,1012.59
2018-04-22T09:27:58.145Z,1012.58
2018-04-22T09:28:58.099Z,1012.56
2018-04-22T09:29:58.104Z,1012.57
2018-04-22T09:30:58.105Z,1012.55
2018-04-22T09:31:58.111Z,1012.52
2018-04-22T09:32:58.113Z,1012.52
2018-04-22T09:33:58.117Z,1012.50
2018-04-22T09:34:58.122Z,1012.50
2018-04-22T09:35:58.121Z,1012.48
2018-04-22T09:36:58.126Z,1012.49
2018-04-22T09:37:58.131Z,1012.45
2018-04-22T09:38:58.137Z,1012.40
2018-04-22T09:39:58.145Z,1012.42
2018-04-22T09:40:58.140Z,1012.41
2018-04-22T09:41:58.145Z,1012.37
2018-04-22T09:42:58.142Z,1012.37
2018-04-22T09:43:58.150Z,1012.30
2018-04-22T09:44:58.155Z,1012.34
2018-04-22T09:45:58.170Z,1012.32
2018-04-22T09:46:58.163Z,1012.34
2018-04-22T09:47:58.166Z,1012.33
2018-04-22T09:48:58.172Z,1012.33
2018-04-22T09:49:58.226Z,1012.32
2018-04-22T09:50:58.171Z,1012.28
2018-04-22T09:51:58.175Z,1012.27
2018-04-22T09:52:58.180Z,1012.23
2018-04-22T09:53:58.184Z,1012.20
2018-04-22T09:54:58.195Z,1012.18
2018-04-22T09:55:58.190Z,1012.16
2018-04-22T09:56:58.193Z,1012.16
2018-04-22T09:57:58.197Z,1012.14
2018-04-22T09:58:58.199Z,1012.16
2018-04-22T09:59:58.204Z,1012.15
2018-04-22T10:00:58.206Z,1012.12
2018-04-22T10:01:58.236Z,1012.18
2018-04-22T10:02:58.218Z,1012.20
2018-04-22T10:03:58.226Z,1012.19
2018-04-22T10:04:58.288Z,1012.18
2018-04-22T10:05:58.221Z,1012.20
2018-04-22T10:06:58.226Z,1012.25
2018-04-22T10:07:58.232Z,1012.23
2018-04-22T10:08:58.240Z,1012.20
2018-04-22T10:09:58.247Z,1012.18
2018-04-22T10:10:58.303Z,1012.17
2018-04-22T10:11:58.246Z,1012.18
2018-04-22T10:12:58.245Z,1012.16
2018-04-22T10:13:58.252Z,1012.16
2018-04-22T10:14:58.253Z,1012.15
2018-04-22T10:15:58.266Z,1012.18
2018-04-22T10:16:58.273Z,1012.16
2018-04-22T10:17:58.264Z,1012.08
2018-04-22T10:18:58.271Z,1012.08
2018-04-22T10:19:58.271Z,1012.04
2018-04-22T10:20:58.269Z,1012.04
2018-04-22T10:21:58.281Z,1012.03
2018-04-22T10:22:58.279Z,1012.04
2018-04-22T10:23:58.284Z,1012.04
2018-04-22T10:24:58.288Z,1012.04
2018-04-22T10:25:58.291Z,1012.05
2018-04-22T10:26:58.297Z,1012.04
2018-04-22T10:27:58.298Z,1012.02
2018-04-22T10:28:58.300Z,1012.01
2018-04-22T10:29:58.310Z,1012.01
2018-04-22T10:30:58.309Z,1011.99
2018-04-22T10:31:58.318Z,1011.94
2018-04-22T10:32:58.316Z,1011.92
2018-04-22T10:33:58.319Z,1011.92
2018-04-22T10:34:58.329Z,1011.88
2018-04-22T10:35:58.331Z,1011.84
2018-04-22T10:36:58.328Z,1011.86
2018-04-22T10:37:58.334Z,1011.84
2018-04-22T10:38:58.344Z,1011.85
2018-04-22T10:39:58.345Z,1011.81
2018-04-22T10:40:58.351Z,1011.83
2018-04-22T10:41:58.403Z,1011.79
2018-04-22T10:42:58.356Z,1011.74
2018-04-22T10:43:58.361Z,1011.73
2018-04-22T10:44:58.359Z,1011.74
2018-04-22T10:45:58.363Z,1011.73
2018-04-22T10:46:58.368Z,1011.75
2018-04-22T10:47:58.377Z,1011.79
2018-04-22T10:48:58.376Z,1011.78
2018-04-22T10:49:58.386Z,1011.75
2018-04-22T10:50:58.405Z,1011.75
2018-04-22T10:51:58.383Z,1011.76
2018-04-22T10:52:58.393Z,1011.70
2018-04-22T10:53:58.390Z,1011.73
2018-04-22T10:54:58.397Z,1011.72
2018-04-22T10:55:58.405Z,1011.71
2018-04-22T10:56:58.406Z,1011.75
2018-04-22T10:57:58.518Z,1011.73
2018-04-22T10:58:58.416Z,1011.72
2018-04-22T10:59:58.417Z,1011.74
2018-04-22T11:00:58.422Z,1011.75
2018-04-22T11:01:58.469Z,1011.78
2018-04-22T11:02:58.430Z,1011.70
2018-04-22T11:03:58.431Z,1011.69
2018-04-22T11:04:58.441Z,1011.65
2018-04-22T11:05:58.440Z,1011.67
2018-04-22T11:06:58.442Z,1011.63
2018-04-22T11:07:58.450Z,1011.65
2018-04-22T11:08:58.452Z,1011.60
2018-04-22T11:09:58.466Z,1011.57
2018-04-22T11:10:58.459Z,1011.53
2018-04-22T11:11:58.464Z,1011.53
2018-04-22T11:12:58.466Z,1011.55
2018-04-22T11:13:58.470Z,1011.57
2018-04-22T11:14:58.480Z,1011.53
2018-04-22T11:15:58.495Z,1011.50
2018-04-22T11:16:58.490Z,1011.47
2018-04-22T11:17:58.489Z,1011.47
2018-04-22T11:18:58.489Z,1011.43
2018-04-22T11:19:58.496Z,1011.45
2018-04-22T11:20:58.498Z,1011.47
2018-04-22T11:21:58.501Z,1011.41
2018-04-22T11:22:58.508Z,1011.39
2018-04-22T11:23:58.517Z,1011.44
2018-04-22T11:24:58.513Z,1011.39
2018-04-22T11:25:58.516Z,1011.41
2018-04-22T11:26:58.530Z,1011.37
2018-04-22T11:27:58.530Z,1011.37
2018-04-22T11:28:58.540Z,1011.36
2018-04-22T11:29:58.528Z,1011.33
2018-04-22T11:30:58.533Z,1011.31
2018-04-22T11:31:58.539Z,1011.33
2018-04-22T11:32:58.545Z,1011.34
2018-04-22T11:33:58.554Z,1011.33
2018-04-22T11:34:58.553Z,1011.23
2018-04-22T11:35:58.556Z,1011.24
2018-04-22T11:36:58.560Z,1011.26
2018-04-22T11:37:58.607Z,1011.23
2018-04-22T11:38:58.568Z,1011.23
2018-04-22T11:39:58.574Z,1011.24
2018-04-22T11:40:58.577Z,1011.26
2018-04-22T11:41:58.626Z,1011.28
2018-04-22T11:42:58.629Z,1011.26
2018-04-22T11:43:58.589Z,1011.27
2018-04-22T11:44:58.593Z,1011.28
2018-04-22T11:45:58.604Z,1011.18
2018-04-22T11:46:58.602Z,1011.19
2018-04-22T11:47:58.605Z,1011.17
2018-04-22T11:49:01.179Z,1011.17
2018-04-22T11:49:58.613Z,1011.19
2018-04-22T11:50:58.663Z,1011.19
2018-04-22T11:51:58.624Z,1011.18
2018-04-22T11:52:58.624Z,1011.14
2018-04-22T11:53:58.634Z,1011.12
2018-04-22T11:54:58.631Z,1011.13
2018-04-22T11:55:58.650Z,1011.11
2018-04-22T11:56:58.641Z,1011.04
2018-04-22T11:57:58.644Z,1011.04
2018-04-22T11:58:58.648Z,1011.02
2018-04-22T11:59:58.725Z,1011.04
2018-04-22T12:00:58.658Z,1011.05
2018-04-22T12:01:58.661Z,1011.03
2018-04-22T12:02:58.665Z,1011.01
2018-04-22T12:03:58.671Z,1011.02
2018-04-22T12:04:58.678Z,1011.03
2018-04-22T12:05:58.677Z,1011.03